MAYO2: W. D. Mayo Lock And Dam (L&D 14)

Data processed at Fri Dec 08 2017 23:30


All information presented herein is the property of the government of the United States of America and may be revised or deleted at any time without prior notice.
Dissemination of this information without the expressed written consent of the Public Affairs Office, Tulsa District U.S. Army Corps of Engineers is strictly prohibited.
These data are gathered electronically and, as presented, have not undergone any form of quality control. These data are not guaranteed to be valid or correct.
Go to home page.
Go to station list.

Upstream stations:

Downstream station:
Previous Day
Next Day
Current Day
    
SHEF ID:       MAYO2     W. D. Mayo Lock And Dam (L&D 14)
STATION TYPE:  NAVIGATION LOCK
Normal Pool:  Bottom =   411.00, Top =   413.00

               PRECIP ELEVATION   STORAGE   TW-ELEV LOCK-ELEV    INFLOW   RELEASE  AIR-TEMP  WIND-DIRWIND-SPEED REL-HUMID SOLAR-RAD   VOLTAGE  BAT-LOAD
                   in        ft     ac-ft        ft        ft       cfs       cfs         F       deg       mph         %      W/m2      volt      volt
              Ccp-Rev   Ccp-Rev   Ccp-Rev   Ccp-Rev   Ccp-Rev  Regi-Rev  Regi-Rev   Ccp-Rev   Ccp-Rev   Ccp-Rev   Ccp-Rev   Ccp-Rev   Ccp-Rev   Ccp-Rev
(US/Central)
12/06 00:00      0.00    412.36     14718    392.83    412.42     17191     23665     34.34    246.90      0.80     62.36      0.00     13.57     13.44
12/06 01:00      0.00    412.26     14565    392.76    412.32     19127     23550     32.70    214.10      1.10     72.19      0.00     13.57     13.44
12/06 02:00      0.00    412.14     14383    392.85    412.22     21280     23416     31.73    224.60      0.80     75.12      0.00     13.57     13.44
12/06 03:00      0.00    412.02     14202    392.91    412.12     21239     23341     31.86    237.30      0.70     73.94      0.00     13.57     13.44
12/06 04:00      0.00    411.90     14023    392.91    412.01     21095     23267     31.57    238.90      0.70     76.07      0.00     13.57     13.44
12/06 05:00      0.00    411.78     13844    392.91    411.89     22345     23195     30.58    207.80      2.50     78.08      0.00     13.56     13.44
12/06 06:00      0.00    411.66     13667    392.95    411.77     22509     23123     31.05    210.40      0.30     77.77      0.00     13.57     13.44
12/06 07:00      0.00    411.90     14023    392.11    411.73     20641     23159     31.93    210.60      0.70     75.68      0.00     13.57     13.44
12/06 08:00      0.00    411.83     13919    392.02    411.65     18570     23228     33.44    328.90      2.70     78.58      0.10     13.57     13.44
12/06 09:00      0.00    411.84     13934    391.61    411.61     16499     11581     31.23    206.00      1.20     78.78     30.90     13.57     13.44
12/06 10:00      0.00    411.79     13859    391.59    411.57     12323     11581     36.39    246.10      0.60     75.14    201.60     13.57     13.44
12/06 11:00      0.00    411.92     14053    391.64    411.54      9695      8277     41.38    255.40      0.90     62.50    154.00     13.57     13.44
12/06 12:00      0.00    412.01     14187    391.63    411.53      8939      4962     42.60    173.50      2.80     59.12    169.50     13.58     13.44
12/06 13:00      0.00    412.22     14504    391.52    411.52      8141      4984     45.66    221.50      4.90     46.10    257.50     13.57     13.44
12/06 14:00      0.00    412.38     14749    391.26    411.51      6768      5023     47.86    230.50      4.60     38.57    225.30     13.58     13.44
12/06 15:00      0.00    412.47     14888    391.43    412.58      5716      5013     51.15    222.80      5.50     34.25    308.90     13.58     13.44
12/06 16:00      0.00    412.67     15198    393.08    393.32      9007         0     52.43    228.80      4.90     33.92    173.90     13.58     13.44
12/06 17:00      0.00    412.74     15308    393.20    393.37     11515         0     51.84    219.40      1.90     36.63     38.70     13.58     13.44
12/06 18:00      0.00    412.83     15449    392.93    393.11     14726     23562     48.18    232.40      3.00     41.24      0.00     13.58     13.44
12/06 19:00      0.00    412.86     15497    392.95    393.15     18670     23756     47.23    278.20      2.30     39.90      0.00     13.57     13.44
12/06 20:00      0.00    412.74     15308    393.38    413.02     21978     23687     40.33    228.30      0.60     52.00      0.00     13.58     13.44
12/06 21:00      0.00    412.41     14795    392.13    412.69     19914     23668     38.07    266.80      1.60     58.62      0.00     13.58     13.44
12/06 22:00      0.00    412.29     14611    392.23    403.11     15827     23649     39.61    269.10      2.00     55.27      0.00     13.57     13.44
12/06 23:00      0.00    412.55     15011    391.84    412.64     11297     10107     36.90    256.90      2.20     63.39      0.00     13.57     13.44